Atmospheric History
05/07/2012 16:30  to  5/8/2012 16:30
Change End Date:
To complete the export process:
1) Select all of the data below
2) Copy the data to the clipboard
3) Open a word processor such as Notepad
4) Paste the data into the word processor
5) Save the file

Date/Time (MST), AirTemp, RH, Dewpoint ,AvgWindSpeed, GustWindSpeed, WindDirection, PrecipType, PrecipIntensity, PrecipAccumulation, PrecipRate
05/08/2012 16:24, 66, 26 , 30 ,2, 4, NW, Yes, , ,  
05/08/2012 16:19, 66, 27 , 31 ,2, 5, NE, Yes, , ,  
05/08/2012 16:09, 64, 27 , 29 ,7, 9, NE, Yes, , ,  
05/08/2012 15:58, 65, 26 , 29 ,1, 2, E, Yes, , ,  
05/08/2012 15:47, 64, 27 , 29 ,5, 7, NE, Yes, , ,  
05/08/2012 15:36, 65, 27 , 30 ,1, 2, W, Yes, , ,  
05/08/2012 15:25, 63, 28 , 29 ,6, 7, NW, Yes, , ,  
05/08/2012 15:14, 66, 27 , 31 ,1, 2, N, Yes, , ,  
05/08/2012 15:04, 63, 28 , 29 ,4, 7, SE, Yes, , ,  
05/08/2012 14:53, 63, 27 , 28 ,1, 2, NE, Yes, , ,  
05/08/2012 14:42, 62, 27 , 28 ,4, 5, N, Yes, , ,  
05/08/2012 14:31, 62, 28 , 28 ,4, 6, N, Yes, , ,  
05/08/2012 14:21, 62, 28 , 28 ,2, 3, W, Yes, , ,  
05/08/2012 14:10, 62, 29 , 29 ,2, 4, SW, Yes, , ,  
05/08/2012 13:58, 61, 29 , 28 ,6, 7, W, Yes, , ,  
05/08/2012 13:48, 62, 29 , 29 ,4, 6, SW, Yes, , ,  
05/08/2012 13:38, 61, 30 , 29 ,4, 5, SW, Yes, , ,  
05/08/2012 13:26, 61, 30 , 29 ,1, 1, S, Yes, , ,  
05/08/2012 13:25, 61, 30 , 29 ,1, 2, SE, Yes, , ,  
05/08/2012 13:16, 60, 30 , 28 ,6, 7, SW, Yes, , ,  
05/08/2012 13:05, 59, 30 , 27 ,2, 3, SW, Yes, , ,  
05/08/2012 12:54, 59, 31 , 28 ,4, 6, W, Yes, , ,  
05/08/2012 12:43, 59, 31 , 28 ,4, 6, W, Yes, , ,  
05/08/2012 12:32, 59, 31 , 28 ,3, 4, NW, Yes, , ,  
05/08/2012 12:21, 59, 32 , 29 ,4, 6, SE, Yes, , ,  
05/08/2012 12:11, 58, 32 , 28 ,4, 7, NW, Yes, , ,  
05/08/2012 12:00, 57, 32 , 27 ,1, 2, NE, Yes, , ,  
05/08/2012 11:49, 58, 33 , 29 ,7, 9, N, Yes, , ,  
05/08/2012 11:38, 57, 33 , 28 ,6, 8, NW, Yes, , ,  
05/08/2012 11:27, 57, 33 , 28 ,1, 2, NE, Yes, , ,  
05/08/2012 11:17, 57, 33 , 28 ,4, 5, NW, Yes, , ,  
05/08/2012 11:06, 58, 33 , 29 ,4, 6, SE, Yes, , ,  
05/08/2012 10:55, 57, 35 , 30 ,2, 4, E, Yes, , ,  
05/08/2012 10:44, 56, 35 , 28 ,3, 6, N, Yes, , ,  
05/08/2012 10:34, 56, 35 , 28 ,6, 7, S, Yes, , ,  
05/08/2012 10:23, 55, 35 , 28 ,4, 6, SW, Yes, , ,  
05/08/2012 10:12, 54, 35 , 27 ,7, 10, SW, Yes, , ,  
05/08/2012 10:02, 56, 35 , 28 ,2, 4, S, Yes, , ,  
05/08/2012 10:01, 56, 35 , 28 ,4, 5, E, Yes, , ,  
05/08/2012 09:50, 55, 37 , 29 ,4, 6, SE, Yes, , ,  
05/08/2012 09:39, 54, 41 , 31 ,3, 5, S, Yes, , ,  
05/08/2012 09:28, 54, 42 , 31 ,4, 5, SE, Yes, , ,  
05/08/2012 09:17, 53, 43 , 31 ,6, 7, SE, Yes, , ,  
05/08/2012 09:07, 54, 43 , 32 ,4, 5, SE, Yes, , ,  
05/08/2012 08:56, 53, 44 , 31 ,4, 4, SE, Yes, , ,  
05/08/2012 08:45, 53, 44 , 31 ,5, 7, SE, Yes, , ,  
05/08/2012 08:34, 52, 44 , 31 ,4, 7, SE, Yes, , ,  
05/08/2012 08:22, 51, 44 , 30 ,3, 5, S, Yes, , ,  
05/08/2012 08:13, 51, 45 , 30 ,3, 3, SE, Yes, , ,  
05/08/2012 08:08, 51, 45 , 30 ,2, 4, SE, Yes, , ,  
05/08/2012 08:02, 50, 45 , 30 ,4, 5, SE, Yes, , ,  
05/08/2012 07:51, 50, 46 , 30 ,3, 4, SE, Yes, , ,  
05/08/2012 07:40, 49, 48 , 30 ,4, 4, SE, Yes, , ,  
05/08/2012 07:29, 48, 50 , 30 ,4, 5, SE, Yes, , ,  
05/08/2012 07:19, 47, 51 , 29 ,4, 4, SE, Yes, , ,  
05/08/2012 07:10, 46, 54 , 30 ,4, 4, SE, Yes, , ,  
05/08/2012 07:08, 45, 54 , 30 ,4, 4, SE, Yes, , ,  
05/08/2012 06:56, 44, 53 , 28 ,4, 5, SE, Yes, , ,  
05/08/2012 06:45, 42, 56 , 28 ,4, 6, E, Yes, , ,  
05/08/2012 06:35, 41, 57 , 27 ,5, 5, E, Yes, , ,  
05/08/2012 06:34, 41, 57 , 26 ,4, 5, E, Yes, , ,  
05/08/2012 06:24, 39, 58 , 26 ,6, 6, E, Yes, , ,  
05/08/2012 06:19, 39, 59 , 25 ,5, 6, E, Yes, , ,  
05/08/2012 06:13, 38, 60 , 25 ,6, 7, E, Yes, , ,  
05/08/2012 06:02, 36, 61 , 24 ,5, 6, E, Yes, , ,  
05/08/2012 05:51, 35, 61 , 23 ,4, 5, NE, Yes, , ,  
05/08/2012 05:40, 36, 60 , 23 ,4, 4, NE, Yes, , ,  
05/08/2012 05:30, 36, 59 , 22 ,4, 4, NE, Yes, , ,  
05/08/2012 05:19, 36, 59 , 23 ,3, 4, NE, Yes, , ,  
05/08/2012 05:07, 36, 58 , 23 ,4, 4, NE, Yes, , ,  
05/08/2012 04:57, 37, 57 , 23 ,4, 4, NE, Yes, , ,  
05/08/2012 04:56, 37, 57 , 23 ,4, 4, NE, Yes, , ,  
05/08/2012 04:45, 37, 56 , 23 ,2, 2, NE, Yes, , ,  
05/08/2012 04:35, 39, 54 , 23 ,4, 4, E, Yes, , ,  
05/08/2012 04:22, 38, 56 , 24 ,4, 5, E, Yes, , ,  
05/08/2012 04:13, 38, 56 , 24 ,5, 5, E, Yes, , ,  
05/08/2012 04:01, 38, 56 , 23 ,5, 5, E, Yes, , ,  
05/08/2012 03:50, 38, 56 , 23 ,4, 4, E, Yes, , ,  
05/08/2012 03:37, 37, 55 , 22 ,4, 5, NE, Yes, , ,  
05/08/2012 03:27, 37, 56 , 23 ,4, 4, E, Yes, , ,  
05/08/2012 03:16, 37, 55 , 22 ,3, 4, NE, Yes, , ,  
05/08/2012 03:05, 38, 54 , 22 ,2, 2, NE, Yes, , ,  
05/08/2012 02:54, 38, 54 , 23 ,3, 3, E, Yes, , ,  
05/08/2012 02:43, 39, 52 , 22 ,4, 4, E, Yes, , ,  
05/08/2012 02:32, 40, 50 , 22 ,3, 3, E, Yes, , ,  
05/08/2012 02:20, 41, 49 , 23 ,2, 2, E, Yes, , ,  
05/08/2012 02:07, 40, 48 , 22 ,3, 3, E, Yes, , ,  
05/08/2012 01:58, 40, 47 , 21 ,3, 3, E, Yes, , ,  
05/08/2012 01:47, 41, 45 , 21 ,3, 3, SE, Yes, , ,  
05/08/2012 01:41, 42, 44 , 21 ,2, 3, SE, Yes, , ,  
05/08/2012 01:36, 42, 43 , 21 ,2, 3, SE, Yes, , ,  
05/08/2012 01:25, 43, 42 , 21 ,4, 4, SE, Yes, , ,  
05/08/2012 01:13, 43, 42 , 22 ,4, 4, SE, Yes, , ,  
05/08/2012 01:02, 44, 42 , 22 ,4, 4, SE, Yes, , ,  
05/08/2012 00:51, 44, 41 , 22 ,4, 5, SE, Yes, , ,  
05/08/2012 00:40, 44, 41 , 22 ,5, 6, SE, Yes, , ,  
05/08/2012 00:29, 44, 41 , 22 ,5, 5, S, Yes, , ,  
05/08/2012 00:18, 44, 41 , 21 ,4, 5, S, Yes, , ,  
05/08/2012 00:06, 42, 41 , 20 ,4, 4, SE, Yes, , ,  
05/07/2012 23:56, 43, 40 , 20 ,4, 5, SE, Yes, , ,  
05/07/2012 23:44, 43, 40 , 20 ,4, 5, SE, Yes, , ,  
05/07/2012 23:33, 42, 40 , 19 ,4, 5, SE, Yes, , ,  
05/07/2012 23:23, 43, 39 , 19 ,5, 6, SE, Yes, , ,  
05/07/2012 23:11, 43, 37 , 19 ,5, 6, SE, Yes, , ,  
05/07/2012 23:00, 45, 36 , 19 ,5, 6, SE, Yes, , ,  
05/07/2012 22:49, 45, 36 , 19 ,4, 5, SE, Yes, , ,  
05/07/2012 22:38, 44, 36 , 19 ,4, 6, SE, Yes, , ,  
05/07/2012 22:27, 44, 36 , 19 ,6, 7, SE, Yes, , ,  
05/07/2012 22:15, 45, 36 , 19 ,6, 8, SE, Yes, , ,  
05/07/2012 22:05, 45, 35 , 19 ,8, 10, SE, Yes, , ,  
05/07/2012 21:53, 45, 35 , 19 ,5, 7, SE, Yes, , ,  
05/07/2012 21:42, 45, 35 , 19 ,6, 6, SE, Yes, , ,  
05/07/2012 21:31, 46, 33 , 18 ,4, 5, SE, Yes, , ,  
05/07/2012 21:26, 47, 33 , 19 ,6, 7, SE, Yes, , ,  
05/07/2012 21:20, 47, 32 , 19 ,7, 8, SE, Yes, , ,  
05/07/2012 21:09, 47, 33 , 19 ,7, 8, SE, Yes, , ,  
05/07/2012 20:58, 47, 32 , 19 ,7, 8, SE, Yes, , ,  
05/07/2012 20:48, 48, 31 , 19 ,6, 9, SE, Yes, , ,  
05/07/2012 20:38, 48, 30 , 18 ,7, 7, SE, Yes, , ,  
05/07/2012 20:26, 48, 29 , 17 ,7, 8, SE, Yes, , ,  
05/07/2012 20:16, 50, 28 , 18 ,7, 11, SE, Yes, , ,  
05/07/2012 20:05, 51, 27 , 18 ,8, 9, SE, Yes, , ,  
05/07/2012 19:54, 52, 26 , 18 ,12, 14, SE, Yes, , ,  
05/07/2012 19:51, 52, 26 , 18 ,11, 13, SE, Yes, , ,  
05/07/2012 19:44, 52, 26 , 18 ,10, 11, SE, Yes, , ,  
05/07/2012 19:32, 53, 25 , 18 ,16, 19, SE, Yes, , ,  
05/07/2012 19:22, 54, 25 , 18 ,12, 16, SE, Yes, , ,  
05/07/2012 19:11, 54, 24 , 18 ,15, 17, SE, Yes, , ,  
05/07/2012 19:01, 55, 24 , 18 ,17, 22, E, Yes, , ,  
05/07/2012 18:49, 55, 24 , 19 ,15, 20, SE, Yes, , ,  
05/07/2012 18:39, 55, 24 , 19 ,17, 21, E, Yes, , ,  
05/07/2012 18:28, 56, 24 , 19 ,16, 19, SE, Yes, , ,  
05/07/2012 18:17, 56, 23 , 18 ,16, 17, SE, Yes, , ,  
05/07/2012 18:06, 56, 23 , 18 ,16, 21, SE, Yes, , ,  
05/07/2012 17:59, 57, 24 , 20 ,16, 18, SE, Yes, , ,  
05/07/2012 17:56, 56, 24 , 20 ,14, 18, SE, Yes, , ,  
05/07/2012 17:44, 57, 24 , 20 ,12, 17, SE, Yes, , ,  
05/07/2012 17:34, 58, 24 , 21 ,18, 21, SE, Yes, , ,  
05/07/2012 17:23, 58, 24 , 22 ,11, 12, E, Yes, , ,  
05/07/2012 17:12, 58, 24 , 21 ,21, 27, SE, Yes, , ,  
05/07/2012 17:01, 57, 24 , 21 ,14, 19, SE, Yes, , ,  
05/07/2012 16:50, 57, 24 , 21 ,15, 21, SE, Yes, , ,  
05/07/2012 16:39, 57, 24 , 21 ,21, 24, S, Yes, , ,  
Change End Date:
Copyright © 1998-2005 Surface Systems, Inc.
All Rights Reserved
Send comments about the data to:
SCAN Web ® is a registered trademark of Surface Systems, Inc.
SCAN Web Version 5.6